createdAt,value
2018-03-20T00:00:13.834Z,63.02
2018-03-20T00:01:13.840Z,63.05
2018-03-20T00:02:13.841Z,63.59
2018-03-20T00:03:13.847Z,63.73
2018-03-20T00:04:13.851Z,63.81
2018-03-20T00:05:13.854Z,64.34
2018-03-20T00:06:13.883Z,64.11
2018-03-20T00:07:13.861Z,64.34
2018-03-20T00:08:13.870Z,63.88
2018-03-20T00:09:13.873Z,64.02
2018-03-20T00:10:13.873Z,63.93
2018-03-20T00:11:14.141Z,63.82
2018-03-20T00:12:13.884Z,64.37
2018-03-20T00:13:13.880Z,64.28
2018-03-20T00:14:13.887Z,64.17
2018-03-20T00:15:13.893Z,63.88
2018-03-20T00:16:13.914Z,63.34
2018-03-20T00:17:13.883Z,63.6
2018-03-20T00:18:13.885Z,62.71
2018-03-20T00:19:13.890Z,63.02
2018-03-20T00:20:13.887Z,61.96
2018-03-20T00:21:13.911Z,62.32
2018-03-20T00:22:13.888Z,62.08
2018-03-20T00:23:13.899Z,62.17
2018-03-20T00:24:13.894Z,62.46
2018-03-20T00:25:13.896Z,62.23
2018-03-20T00:26:13.907Z,61.93
2018-03-20T00:27:13.976Z,61.29
2018-03-20T00:28:13.908Z,61.31
2018-03-20T00:29:13.909Z,60.74
2018-03-20T00:30:13.915Z,61.37
2018-03-20T00:31:13.917Z,60.71
2018-03-20T00:32:13.943Z,60.31
2018-03-20T00:33:13.931Z,61.01
2018-03-20T00:34:13.922Z,61.55
2018-03-20T00:35:13.930Z,61.86
2018-03-20T00:36:13.939Z,61.23
2018-03-20T00:37:13.944Z,61.17
2018-03-20T00:38:13.948Z,61.29
2018-03-20T00:39:13.973Z,60.95
2018-03-20T00:40:13.938Z,60.79
2018-03-20T00:41:13.959Z,59.84
2018-03-20T00:42:13.938Z,59.83
2018-03-20T00:43:13.943Z,59.84
2018-03-20T00:44:13.952Z,60.38
2018-03-20T00:45:13.957Z,60.57
2018-03-20T00:46:14.128Z,60.78
2018-03-20T00:47:13.963Z,60.69
2018-03-20T00:48:13.967Z,60.89
2018-03-20T00:49:13.973Z,60.88
2018-03-20T00:50:13.970Z,61.23
2018-03-20T00:51:13.996Z,61.32
2018-03-20T00:52:13.980Z,61.55
2018-03-20T00:53:13.976Z,61.66
2018-03-20T00:54:13.983Z,61.58
2018-03-20T00:55:13.982Z,61.62
2018-03-20T00:56:14.003Z,61.28
2018-03-20T00:57:13.984Z,61.22
2018-03-20T00:58:13.980Z,61.3
2018-03-20T00:59:13.993Z,61.49
2018-03-20T01:00:13.999Z,61.87
2018-03-20T01:01:14.026Z,62.28
2018-03-20T01:02:14.004Z,62.48
2018-03-20T01:03:14.007Z,62.51
2018-03-20T01:04:14.009Z,62.34
2018-03-20T01:05:14.015Z,62.84
2018-03-20T01:06:14.053Z,62.94
2018-03-20T01:07:14.018Z,62.82
2018-03-20T01:08:14.020Z,62.78
2018-03-20T01:09:14.021Z,62.68
2018-03-20T01:10:14.028Z,62.87
2018-03-20T01:11:14.036Z,63.28
2018-03-20T01:12:14.039Z,63.67
2018-03-20T01:13:14.047Z,63.75
2018-03-20T01:14:14.049Z,63.96
2018-03-20T01:15:14.046Z,64.14
2018-03-20T01:16:14.052Z,64.42
2018-03-20T01:17:14.087Z,65.58
2018-03-20T01:18:14.058Z,65.26
2018-03-20T01:19:14.063Z,65.41
2018-03-20T01:20:14.069Z,65.29
2018-03-20T01:21:14.073Z,65.81
2018-03-20T01:22:14.247Z,65.85
2018-03-20T01:23:14.081Z,65.5
2018-03-20T01:24:14.088Z,65.71
2018-03-20T01:25:14.130Z,65.99
2018-03-20T01:26:14.085Z,65.96
2018-03-20T01:27:14.112Z,66.13
2018-03-20T01:28:14.096Z,65.65
2018-03-20T01:29:14.089Z,65.78
2018-03-20T01:30:14.092Z,65.45
2018-03-20T01:31:14.092Z,65.83
2018-03-20T01:32:14.099Z,66.1
2018-03-20T01:33:14.103Z,65.8
2018-03-20T01:34:14.153Z,65.47
2018-03-20T01:35:14.110Z,65.97
2018-03-20T01:36:14.108Z,65.86
2018-03-20T01:37:14.136Z,65.77
2018-03-20T01:38:14.111Z,65.38
2018-03-20T01:39:14.132Z,65.33
2018-03-20T01:40:14.120Z,65.35
2018-03-20T01:41:14.122Z,65.19
2018-03-20T01:42:14.159Z,66.14
2018-03-20T01:43:14.137Z,66.08
2018-03-20T01:44:14.143Z,66.31
2018-03-20T01:45:14.149Z,66.13
2018-03-20T01:46:14.158Z,66.3
2018-03-20T01:47:14.173Z,66.3
2018-03-20T01:48:14.160Z,66.45
2018-03-20T01:49:14.161Z,66.71
2018-03-20T01:50:14.169Z,66.89
2018-03-20T01:51:14.175Z,67.04
2018-03-20T01:52:14.183Z,67.04
2018-03-20T01:53:14.192Z,67.74
2018-03-20T01:54:14.197Z,67.75
2018-03-20T01:55:14.200Z,67.29
2018-03-20T01:56:14.187Z,67.35
2018-03-20T01:57:14.225Z,67.4
2018-03-20T01:58:14.188Z,67.36
2018-03-20T01:59:14.200Z,66.96
2018-03-20T02:00:14.199Z,66.96
2018-03-20T02:01:14.196Z,67.5
2018-03-20T02:02:14.227Z,67
2018-03-20T02:03:14.219Z,66.54
2018-03-20T02:04:14.202Z,66.65
2018-03-20T02:05:14.202Z,66.78
2018-03-20T02:06:14.209Z,66.72
2018-03-20T02:07:14.235Z,67.45
2018-03-20T02:08:14.224Z,67.39
2018-03-20T02:09:14.221Z,66.51
2018-03-20T02:10:14.221Z,65.46
2018-03-20T02:11:14.229Z,66.64
2018-03-20T02:12:14.250Z,66.67
2018-03-20T02:13:14.224Z,67.91
2018-03-20T02:14:14.250Z,67.47
2018-03-20T02:15:14.231Z,67.24
2018-03-20T02:16:14.225Z,67.42
2018-03-20T02:17:14.400Z,67.22
2018-03-20T02:18:14.236Z,67.45
2018-03-20T02:19:14.249Z,67.24
2018-03-20T02:20:14.251Z,66.69
2018-03-20T02:21:14.244Z,66.66
2018-03-20T02:22:14.272Z,66.69
2018-03-20T02:23:14.255Z,67.04
2018-03-20T02:24:14.253Z,66.91
2018-03-20T02:25:14.269Z,66.58
2018-03-20T02:26:14.254Z,67.87
2018-03-20T02:27:14.278Z,68.44
2018-03-20T02:28:14.251Z,69.19
2018-03-20T02:29:14.248Z,68.62
2018-03-20T02:30:14.259Z,68.83
2018-03-20T02:31:14.268Z,68.71
2018-03-20T02:32:14.264Z,68.61
2018-03-20T02:33:14.271Z,69.27
2018-03-20T02:34:14.270Z,69.57
2018-03-20T02:35:14.273Z,69.22
2018-03-20T02:36:14.276Z,69.04
2018-03-20T02:37:14.283Z,69.58
2018-03-20T02:38:14.299Z,69.13
2018-03-20T02:39:14.284Z,68.8
2018-03-20T02:40:14.290Z,68.58
2018-03-20T02:41:14.292Z,69.37
2018-03-20T02:42:14.286Z,68.96
2018-03-20T02:43:14.290Z,68.76
2018-03-20T02:44:14.283Z,68.53
2018-03-20T02:45:14.287Z,68.5
2018-03-20T02:46:14.291Z,68.42
2018-03-20T02:47:14.299Z,68.38
2018-03-20T02:48:14.303Z,67.9
2018-03-20T02:49:14.325Z,67.99
2018-03-20T02:50:14.310Z,68.22
2018-03-20T02:51:14.319Z,68.25
2018-03-20T02:52:14.313Z,68.51
2018-03-20T02:53:14.324Z,68.68
2018-03-20T02:54:14.343Z,68.6
2018-03-20T02:55:14.325Z,68.25
2018-03-20T02:56:14.328Z,68.28
2018-03-20T02:57:14.330Z,68.83
2018-03-20T02:58:14.336Z,69.08
2018-03-20T02:59:14.340Z,69.32
2018-03-20T03:00:14.347Z,69.63
2018-03-20T03:01:14.351Z,69.61
2018-03-20T03:02:14.354Z,69.28
2018-03-20T03:03:14.353Z,69.67
2018-03-20T03:04:14.372Z,69.77
2018-03-20T03:05:14.349Z,69.87
2018-03-20T03:06:14.348Z,69.72
2018-03-20T03:07:14.350Z,69.74
2018-03-20T03:08:14.355Z,69.79
2018-03-20T03:09:14.351Z,70.04
2018-03-20T03:10:14.357Z,70.16
2018-03-20T03:11:14.364Z,70.49
2018-03-20T03:12:14.392Z,70.76
2018-03-20T03:13:14.372Z,71.26
2018-03-20T03:14:14.384Z,71.34
2018-03-20T03:15:14.383Z,71.52
2018-03-20T03:16:14.384Z,71.69
2018-03-20T03:17:14.412Z,71.5
2018-03-20T03:18:14.389Z,71.52
2018-03-20T03:19:14.397Z,71.29
2018-03-20T03:20:14.400Z,71.13
2018-03-20T03:21:14.408Z,70.5
2018-03-20T03:22:14.422Z,70.23
2018-03-20T03:23:14.444Z,70.65
2018-03-20T03:24:14.419Z,70.71
2018-03-20T03:25:14.416Z,70.15
2018-03-20T03:26:14.425Z,70.61
2018-03-20T03:27:14.429Z,70.33
2018-03-20T03:28:14.481Z,70.47
2018-03-20T03:29:14.427Z,70.43
2018-03-20T03:30:14.428Z,70.74
2018-03-20T03:31:14.429Z,71.07
2018-03-20T03:32:14.439Z,70.96
2018-03-20T03:33:14.464Z,71.16
2018-03-20T03:34:14.446Z,70.96
2018-03-20T03:35:14.445Z,71.34
2018-03-20T03:36:14.455Z,71.27
2018-03-20T03:37:14.451Z,71.14
2018-03-20T03:38:14.723Z,71.57
2018-03-20T03:39:14.466Z,71.67
2018-03-20T03:40:14.462Z,71.91
2018-03-20T03:41:14.468Z,71.76
2018-03-20T03:42:14.490Z,71.48
2018-03-20T03:43:14.502Z,71.52
2018-03-20T03:44:14.481Z,71.48
2018-03-20T03:45:14.480Z,71.32
2018-03-20T03:46:14.480Z,71.15
2018-03-20T03:47:14.484Z,71.02
2018-03-20T03:48:14.512Z,71.1
2018-03-20T03:49:14.506Z,70.83
2018-03-20T03:50:14.490Z,70.78
2018-03-20T03:51:14.497Z,70.72
2018-03-20T03:52:14.498Z,69.99
2018-03-20T03:53:14.519Z,70.31
2018-03-20T03:54:14.499Z,70.25
2018-03-20T03:55:14.504Z,70.64
2018-03-20T03:56:14.517Z,70.17
2018-03-20T03:57:14.520Z,70.58
2018-03-20T03:58:14.512Z,70.55
2018-03-20T03:59:14.545Z,70
2018-03-20T04:00:14.527Z,70.31
2018-03-20T04:01:14.533Z,70.08
2018-03-20T04:02:14.525Z,70.42
2018-03-20T04:03:14.548Z,70.21
2018-03-20T04:04:14.566Z,70.21
2018-03-20T04:05:14.531Z,69.98
2018-03-20T04:06:14.541Z,69.86
2018-03-20T04:07:14.541Z,70.44
2018-03-20T04:08:14.548Z,70.38
2018-03-20T04:09:14.570Z,70.5
2018-03-20T04:10:14.565Z,70.8
2018-03-20T04:11:14.544Z,71.01
2018-03-20T04:12:14.553Z,70.76
2018-03-20T04:13:14.558Z,70.67
2018-03-20T04:14:14.561Z,71.09
2018-03-20T04:15:14.577Z,71.17
2018-03-20T04:16:14.567Z,71.17
2018-03-20T04:17:14.582Z,71.32
2018-03-20T04:18:14.613Z,71.36
2018-03-20T04:19:14.585Z,71.18
2018-03-20T04:20:14.595Z,71.6
2018-03-20T04:21:14.598Z,72.02
2018-03-20T04:22:14.603Z,71.92
2018-03-20T04:23:14.596Z,72.4
2018-03-20T04:24:14.597Z,72.69
2018-03-20T04:25:14.598Z,72.97
2018-03-20T04:26:14.605Z,72.76
2018-03-20T04:27:14.612Z,73.24
2018-03-20T04:28:14.610Z,73.01
2018-03-20T04:29:14.640Z,73.34
2018-03-20T04:30:14.619Z,73.14
2018-03-20T04:31:14.622Z,73.15
2018-03-20T04:32:14.625Z,73.23
2018-03-20T04:33:14.633Z,73.37
2018-03-20T04:34:14.666Z,73.37
2018-03-20T04:35:14.649Z,73.3
2018-03-20T04:36:14.653Z,73.12
2018-03-20T04:37:14.654Z,73.12
2018-03-20T04:38:14.667Z,73.13
2018-03-20T04:39:14.665Z,73.01
2018-03-20T04:40:14.692Z,73.1
2018-03-20T04:41:14.677Z,73.09
2018-03-20T04:42:14.682Z,73.09
2018-03-20T04:43:14.692Z,72.73
2018-03-20T04:44:14.690Z,72.92
2018-03-20T04:45:14.696Z,72.59
2018-03-20T04:46:14.708Z,72.51
2018-03-20T04:47:14.693Z,72.22
2018-03-20T04:48:14.758Z,72.27
2018-03-20T04:49:14.707Z,72.28
2018-03-20T04:50:14.707Z,72.16
2018-03-20T04:51:14.728Z,72.15
2018-03-20T04:52:14.711Z,72.18
2018-03-20T04:53:14.721Z,72.18
2018-03-20T04:54:14.731Z,72.41
2018-03-20T04:55:14.731Z,71.64
2018-03-20T04:56:14.760Z,71.68
2018-03-20T04:57:14.744Z,71.65
2018-03-20T04:58:14.736Z,71.56
2018-03-20T04:59:14.783Z,71.29
2018-03-20T05:00:14.755Z,71.36
2018-03-20T05:01:14.770Z,71.37
2018-03-20T05:02:14.753Z,71.17
2018-03-20T05:03:14.779Z,71.13
2018-03-20T05:04:14.764Z,71.11
2018-03-20T05:05:14.764Z,71.53
2018-03-20T05:06:14.773Z,71.1
2018-03-20T05:07:14.779Z,71.11
2018-03-20T05:08:14.777Z,71.07
2018-03-20T05:09:14.784Z,71.21
2018-03-20T05:10:14.795Z,70.75
2018-03-20T05:11:14.812Z,70.86
2018-03-20T05:12:14.828Z,70.93
2018-03-20T05:13:14.793Z,70.64
2018-03-20T05:14:14.790Z,70.55
2018-03-20T05:15:14.791Z,70.96
2018-03-20T05:16:14.822Z,70.42
2018-03-20T05:17:14.808Z,70.95
2018-03-20T05:18:14.800Z,70.83
2018-03-20T05:19:14.806Z,70.95
2018-03-20T05:20:14.811Z,70.84
2018-03-20T05:21:14.822Z,71.09
2018-03-20T05:22:14.825Z,71.14
2018-03-20T05:23:14.824Z,70.85
2018-03-20T05:24:14.824Z,70.58
2018-03-20T05:25:14.827Z,71.27
2018-03-20T05:26:14.830Z,70.7
2018-03-20T05:27:14.840Z,70.9
2018-03-20T05:28:14.838Z,70.88
2018-03-20T05:29:14.837Z,70.48
2018-03-20T05:30:14.843Z,70.43
2018-03-20T05:31:14.838Z,70.47
2018-03-20T05:32:14.842Z,70.64
2018-03-20T05:33:14.851Z,70.52
2018-03-20T05:34:14.857Z,70.33
2018-03-20T05:35:14.858Z,70.19
2018-03-20T05:36:14.875Z,70.73
2018-03-20T05:37:14.862Z,70.64
2018-03-20T05:38:14.864Z,70.46
2018-03-20T05:39:14.861Z,70.55
2018-03-20T05:40:14.869Z,70.67
2018-03-20T05:41:14.863Z,70.49
2018-03-20T05:42:14.865Z,70.45
2018-03-20T05:43:14.873Z,70.4
2018-03-20T05:44:14.888Z,70.31
2018-03-20T05:45:14.881Z,70.42
2018-03-20T05:46:14.888Z,70.52
2018-03-20T05:47:14.890Z,70.63
2018-03-20T05:48:14.921Z,70.62
2018-03-20T05:49:14.904Z,70.62
2018-03-20T05:50:14.915Z,70.59
2018-03-20T05:51:14.920Z,70.51
2018-03-20T05:52:14.912Z,70.56
2018-03-20T05:53:14.930Z,70.29
2018-03-20T05:54:14.922Z,70.13
2018-03-20T05:55:14.960Z,70.14
2018-03-20T05:56:14.911Z,69.91
2018-03-20T05:57:14.920Z,70.19
2018-03-20T05:58:15.346Z,70.16
2018-03-20T05:59:14.922Z,70.09
2018-03-20T06:00:14.931Z,70.08
2018-03-20T06:01:14.930Z,69.87
2018-03-20T06:02:14.933Z,69.88
2018-03-20T06:03:15.034Z,70.09
2018-03-20T06:04:14.933Z,70.26
2018-03-20T06:05:14.932Z,70.4
2018-03-20T06:06:15.046Z,70.6
2018-03-20T06:07:14.946Z,70.52
2018-03-20T06:08:15.368Z,70.39
2018-03-20T06:09:14.952Z,70.33
2018-03-20T06:10:14.953Z,70.33
2018-03-20T06:11:14.959Z,70.68
2018-03-20T06:12:14.959Z,70.7
2018-03-20T06:13:14.988Z,70.51
2018-03-20T06:14:14.966Z,70.38
2018-03-20T06:15:14.970Z,70.56
2018-03-20T06:16:14.981Z,70.85
2018-03-20T06:17:14.980Z,70.42
2018-03-20T06:18:15.001Z,70.37
2018-03-20T06:19:14.978Z,70.18
2018-03-20T06:20:14.981Z,70.39
2018-03-20T06:21:14.978Z,70.52
2018-03-20T06:22:14.988Z,70.11
2018-03-20T06:23:15.012Z,70.02
2018-03-20T06:24:14.990Z,70.31
2018-03-20T06:25:14.997Z,70.4
2018-03-20T06:26:15.011Z,70.61
2018-03-20T06:27:20.185Z,70.39
2018-03-20T06:28:20.022Z,70.03
2018-03-20T06:29:16.757Z,70.16
2018-03-20T06:30:20.619Z,69.96
2018-03-20T06:31:20.494Z,69.99
2018-03-20T06:32:15.016Z,69.79
2018-03-20T06:33:15.024Z,69.72
2018-03-20T06:34:15.025Z,69.56
2018-03-20T06:35:15.057Z,69.49
2018-03-20T06:36:15.039Z,69.31
2018-03-20T06:37:15.040Z,69.26
2018-03-20T06:38:15.045Z,69.46
2018-03-20T06:39:15.051Z,69.25
2018-03-20T06:40:15.058Z,68.93
2018-03-20T06:41:15.053Z,68.86
2018-03-20T06:42:15.056Z,68.71
2018-03-20T06:43:15.060Z,68.41
2018-03-20T06:44:15.065Z,68.3
2018-03-20T06:45:15.086Z,68.12
2018-03-20T06:46:15.067Z,67.97
2018-03-20T06:47:15.062Z,68.32
2018-03-20T06:48:15.096Z,68.64
2018-03-20T06:49:15.090Z,68.8
2018-03-20T06:50:15.074Z,68.81
2018-03-20T06:51:15.082Z,68.59
2018-03-20T06:52:15.107Z,68.66
2018-03-20T06:53:15.087Z,68.79
2018-03-20T06:54:15.089Z,68.98
2018-03-20T06:55:15.094Z,68.84
2018-03-20T06:56:15.103Z,68.59
2018-03-20T06:57:15.103Z,68.58
2018-03-20T06:58:15.130Z,68.78
2018-03-20T06:59:15.134Z,68.34
2018-03-20T07:00:15.104Z,68.01
2018-03-20T07:01:15.105Z,68.34
2018-03-20T07:02:15.113Z,68.12
2018-03-20T07:03:15.144Z,68.15
2018-03-20T07:04:15.123Z,68.39
2018-03-20T07:05:15.126Z,68.33
2018-03-20T07:06:15.147Z,68.07
2018-03-20T07:07:15.133Z,67.74
2018-03-20T07:08:15.157Z,67.81
2018-03-20T07:09:15.139Z,68.14
2018-03-20T07:10:15.146Z,68.05
2018-03-20T07:11:15.152Z,68.4
2018-03-20T07:12:15.157Z,68.31
2018-03-20T07:13:15.165Z,67.75
2018-03-20T07:14:15.186Z,67.82
2018-03-20T07:15:15.169Z,67.61
2018-03-20T07:16:15.171Z,67.39
2018-03-20T07:17:15.173Z,67.3
2018-03-20T07:18:15.177Z,67.31
2018-03-20T07:19:15.176Z,67.43
2018-03-20T07:20:15.188Z,67.29
2018-03-20T07:21:15.182Z,67.24
2018-03-20T07:22:15.184Z,66.95
2018-03-20T07:23:15.193Z,66.79
2018-03-20T07:24:15.219Z,66.93
2018-03-20T07:25:15.205Z,66.63
2018-03-20T07:26:15.203Z,66.06
2018-03-20T07:27:15.216Z,65.98
2018-03-20T07:28:15.229Z,65.64
2018-03-20T07:29:15.240Z,66.07
2018-03-20T07:30:15.243Z,66.34
2018-03-20T07:31:15.221Z,65.71
2018-03-20T07:32:15.223Z,65.08
2018-03-20T07:33:15.224Z,65.4
2018-03-20T07:34:15.253Z,65.63
2018-03-20T07:35:15.232Z,65.92
2018-03-20T07:36:15.241Z,65.03
2018-03-20T07:37:15.242Z,65.46
2018-03-20T07:38:15.237Z,65.32
2018-03-20T07:39:15.393Z,65.39
2018-03-20T07:40:15.253Z,65.46
2018-03-20T07:41:15.251Z,65.43
2018-03-20T07:42:15.256Z,64.86
2018-03-20T07:43:15.257Z,65.07
2018-03-20T07:44:15.294Z,65.01
2018-03-20T07:45:15.273Z,64.88
2018-03-20T07:46:15.275Z,65
2018-03-20T07:47:15.279Z,64.93
2018-03-20T07:48:15.306Z,64.73
2018-03-20T07:49:15.286Z,64.69
2018-03-20T07:50:15.290Z,64.48
2018-03-20T07:51:15.297Z,64.45
2018-03-20T07:52:15.319Z,63.93
2018-03-20T07:53:15.308Z,64.02
2018-03-20T07:54:15.318Z,63.94
2018-03-20T07:55:15.320Z,64.13
2018-03-20T07:56:15.327Z,64.03
2018-03-20T07:57:15.330Z,64.4
2018-03-20T07:58:15.333Z,64.21
2018-03-20T07:59:15.355Z,64.43
2018-03-20T08:00:15.462Z,64.4
2018-03-20T08:01:15.354Z,64.31
2018-03-20T08:02:15.356Z,64.52
2018-03-20T08:03:15.360Z,64.37
2018-03-20T08:04:15.362Z,64.47
2018-03-20T08:05:15.395Z,64.41
2018-03-20T08:06:15.376Z,64.47
2018-03-20T08:07:15.376Z,63.75
2018-03-20T08:08:15.377Z,63.95
2018-03-20T08:09:15.383Z,64.17
2018-03-20T08:10:15.391Z,64.34
2018-03-20T08:11:15.417Z,63.26
2018-03-20T08:12:15.399Z,62.84
2018-03-20T08:13:15.403Z,62.28
2018-03-20T08:14:15.407Z,62.17
2018-03-20T08:15:15.440Z,61.91
2018-03-20T08:16:15.416Z,61.82
2018-03-20T08:17:15.418Z,61.48
2018-03-20T08:18:15.426Z,60.92
2018-03-20T08:19:15.420Z,60.93
2018-03-20T08:20:15.473Z,61.01
2018-03-20T08:21:15.431Z,60.61
2018-03-20T08:22:15.431Z,61.86
2018-03-20T08:23:15.437Z,61.95
2018-03-20T08:24:15.437Z,61.07
2018-03-20T08:25:15.464Z,60.75
2018-03-20T08:26:15.441Z,59.94
2018-03-20T08:27:15.447Z,59.9
2018-03-20T08:28:15.446Z,61.2
2018-03-20T08:29:15.452Z,61.28
2018-03-20T08:30:15.474Z,61.07
2018-03-20T08:31:15.457Z,60.66
2018-03-20T08:32:15.469Z,60.52
2018-03-20T08:33:15.468Z,60.38
2018-03-20T08:34:15.465Z,59.66
2018-03-20T08:35:15.466Z,59.37
2018-03-20T08:36:15.467Z,59.52
2018-03-20T08:37:15.476Z,59.49
2018-03-20T08:38:15.477Z,59.29
2018-03-20T08:39:15.478Z,59.41
2018-03-20T08:40:15.511Z,59.34
2018-03-20T08:41:15.485Z,59.34
2018-03-20T08:42:15.482Z,59.3
2018-03-20T08:43:15.487Z,58.67
2018-03-20T08:44:15.492Z,58.28
2018-03-20T08:45:15.601Z,58.94
2018-03-20T08:46:15.495Z,59.34
2018-03-20T08:47:15.493Z,57.83
2018-03-20T08:48:15.495Z,57.96
2018-03-20T08:49:15.498Z,56.74
2018-03-20T08:50:15.534Z,55.88
2018-03-20T08:51:15.510Z,55.96
2018-03-20T08:52:15.513Z,57.19
2018-03-20T08:53:15.514Z,57.67
2018-03-20T08:54:15.523Z,57.83
2018-03-20T08:55:15.546Z,57.8
2018-03-20T08:56:15.658Z,57.64
2018-03-20T08:57:15.642Z,58.37
2018-03-20T08:58:15.534Z,57.18
2018-03-20T08:59:15.553Z,56.42
2018-03-20T09:00:15.671Z,55.62
2018-03-20T09:01:15.566Z,55
2018-03-20T09:02:15.572Z,52.95
2018-03-20T09:03:15.563Z,53.31
2018-03-20T09:04:15.566Z,52.9
2018-03-20T09:05:15.701Z,51.02
2018-03-20T09:06:15.597Z,51.41
2018-03-20T09:07:15.608Z,52.68
2018-03-20T09:08:15.578Z,53.56
2018-03-20T09:09:15.582Z,52.41
2018-03-20T09:10:15.627Z,52.33
2018-03-20T09:11:15.636Z,52.23
2018-03-20T09:12:15.646Z,53.54
2018-03-20T09:13:15.658Z,52.7
2018-03-20T09:14:15.660Z,52.42
2018-03-20T09:15:15.623Z,53.14
2018-03-20T09:16:15.873Z,52.13
2018-03-20T09:17:15.597Z,53.89
2018-03-20T09:18:15.599Z,54.43
2018-03-20T09:19:15.598Z,53.05
2018-03-20T09:20:15.626Z,52.91
2018-03-20T09:21:15.625Z,52.85
2018-03-20T09:22:15.613Z,51.82
2018-03-20T09:23:15.623Z,50.28
2018-03-20T09:24:15.631Z,50.29
2018-03-20T09:25:15.627Z,51.2
2018-03-20T09:26:15.662Z,51.18
2018-03-20T09:27:15.648Z,50.95
2018-03-20T09:28:15.631Z,51.04
2018-03-20T09:29:15.631Z,52.58
2018-03-20T09:30:15.629Z,52.19
2018-03-20T09:31:15.663Z,50.48
2018-03-20T09:32:15.643Z,49.68
2018-03-20T09:33:15.638Z,51.25
2018-03-20T09:34:15.659Z,52.03
2018-03-20T09:35:15.647Z,50.19
2018-03-20T09:36:15.678Z,47.61
2018-03-20T09:37:15.664Z,46.84
2018-03-20T09:38:15.679Z,45.75
2018-03-20T09:39:15.659Z,44.98
2018-03-20T09:40:15.665Z,45.08
2018-03-20T09:41:15.721Z,46.05
2018-03-20T09:42:15.671Z,45.23
2018-03-20T09:43:15.673Z,44.52
2018-03-20T09:44:15.677Z,43.61
2018-03-20T09:45:15.675Z,45.04
2018-03-20T09:46:15.680Z,45.3
2018-03-20T09:47:15.686Z,45.98
2018-03-20T09:48:15.688Z,44.21
2018-03-20T09:49:15.689Z,43.46
2018-03-20T09:50:15.852Z,44.94
2018-03-20T09:51:16.061Z,44.09
2018-03-20T09:52:15.704Z,44.42
2018-03-20T09:53:15.709Z,45.22
2018-03-20T09:54:15.809Z,44.64
2018-03-20T09:55:15.710Z,43.48
2018-03-20T09:56:15.730Z,43.09
2018-03-20T09:57:15.720Z,43.34
2018-03-20T09:58:15.708Z,43.92
2018-03-20T09:59:15.707Z,42.62
2018-03-20T10:00:15.744Z,43.41
2018-03-20T10:01:15.709Z,42.95
2018-03-20T10:02:15.717Z,43.65
2018-03-20T10:03:15.716Z,43.45
2018-03-20T10:04:15.718Z,42.92
2018-03-20T10:05:15.724Z,42.84
2018-03-20T10:06:15.726Z,44.34
2018-03-20T10:07:15.728Z,46.43
2018-03-20T10:08:15.726Z,45.02
2018-03-20T10:09:15.730Z,44.98
2018-03-20T10:10:15.731Z,48.07
2018-03-20T10:11:15.741Z,50.05
2018-03-20T10:12:15.869Z,51.11
2018-03-20T10:13:15.750Z,50.91
2018-03-20T10:14:15.753Z,51.2
2018-03-20T10:15:15.768Z,52.27
2018-03-20T10:16:15.772Z,52.16
2018-03-20T10:17:16.031Z,52.34
2018-03-20T10:18:15.771Z,52.22
2018-03-20T10:19:15.818Z,51.85
2018-03-20T10:20:15.795Z,52.36
2018-03-20T10:21:15.783Z,52.28
2018-03-20T10:22:15.808Z,51.62
2018-03-20T10:23:15.789Z,49.86
2018-03-20T10:24:15.793Z,49.45
2018-03-20T10:25:15.799Z,48.79
2018-03-20T10:26:15.830Z,48.19
2018-03-20T10:27:15.816Z,48.61
2018-03-20T10:28:15.799Z,49
2018-03-20T10:29:15.798Z,49.1
2018-03-20T10:30:15.804Z,49.05
2018-03-20T10:31:15.808Z,48.89
2018-03-20T10:32:15.804Z,48.86
2018-03-20T10:33:15.830Z,47.48
2018-03-20T10:34:15.807Z,46.75
2018-03-20T10:35:15.820Z,45.12
2018-03-20T10:36:15.807Z,44.16
2018-03-20T10:37:15.813Z,45.32
2018-03-20T10:38:15.843Z,45.14
2018-03-20T10:39:15.821Z,45.43
2018-03-20T10:40:15.822Z,45.28
2018-03-20T10:41:15.822Z,45.77
2018-03-20T10:42:15.832Z,46.3
2018-03-20T10:43:15.851Z,46.88
2018-03-20T10:44:15.838Z,45.97
2018-03-20T10:45:15.831Z,46.85
2018-03-20T10:46:15.832Z,46.86
2018-03-20T10:47:15.839Z,45.22
2018-03-20T10:48:15.862Z,45.22
2018-03-20T10:49:15.846Z,44.12
2018-03-20T10:50:15.843Z,46.34
2018-03-20T10:51:15.850Z,46.69
2018-03-20T10:52:15.853Z,46.47
2018-03-20T10:53:15.889Z,47.88
2018-03-20T10:54:15.863Z,48.48
2018-03-20T10:55:15.879Z,48.08
2018-03-20T10:56:15.864Z,47.68
2018-03-20T10:57:15.865Z,47.18
2018-03-20T10:58:16.003Z,47.62
2018-03-20T10:59:15.873Z,48.86
2018-03-20T11:00:15.881Z,48.52
2018-03-20T11:01:15.885Z,49.48
2018-03-20T11:02:15.892Z,49.36
2018-03-20T11:03:15.910Z,48.29
2018-03-20T11:04:15.890Z,48.64
2018-03-20T11:05:15.890Z,48.38
2018-03-20T11:06:15.889Z,48.2
2018-03-20T11:07:15.895Z,50.42
2018-03-20T11:08:15.936Z,50.29
2018-03-20T11:09:15.905Z,51.13
2018-03-20T11:10:15.918Z,50.42
2018-03-20T11:11:15.939Z,49.78
2018-03-20T11:12:15.919Z,51.19
2018-03-20T11:13:15.918Z,51.87
2018-03-20T11:14:15.923Z,52.08
2018-03-20T11:15:15.923Z,52.88
2018-03-20T11:16:15.922Z,53.6
2018-03-20T11:17:15.925Z,56.41
2018-03-20T11:18:15.931Z,61.26
2018-03-20T11:19:15.933Z,64.83
2018-03-20T11:20:15.937Z,67.31
2018-03-20T11:21:15.944Z,67.5
2018-03-20T11:22:15.951Z,70.63
2018-03-20T11:23:16.238Z,71.77
2018-03-20T11:24:15.955Z,72.87
2018-03-20T11:25:15.956Z,75.68
2018-03-20T11:26:15.958Z,77.69
2018-03-20T11:27:15.958Z,76.13
2018-03-20T11:28:16.003Z,76.69
2018-03-20T11:29:15.962Z,77.77
2018-03-20T11:30:15.963Z,79.23
2018-03-20T11:31:15.973Z,80.92
2018-03-20T11:32:15.977Z,81.63
2018-03-20T11:33:15.980Z,81.27
2018-03-20T11:34:15.979Z,82.42
2018-03-20T11:35:15.985Z,83.19
2018-03-20T11:36:15.996Z,84.19
2018-03-20T11:37:16.021Z,83.64
2018-03-20T11:38:16.026Z,83.83
2018-03-20T11:39:15.994Z,82.88
2018-03-20T11:40:16.002Z,83.06
2018-03-20T11:41:16.004Z,84.5
2018-03-20T11:42:15.998Z,83.56
2018-03-20T11:43:16.031Z,83.58
2018-03-20T11:44:16.031Z,83.07
2018-03-20T11:45:16.014Z,82.19
2018-03-20T11:46:16.019Z,83.8
2018-03-20T11:47:16.024Z,84.98
2018-03-20T11:48:16.336Z,84.31
2018-03-20T11:49:16.024Z,83.1
2018-03-20T11:50:16.026Z,82.61
2018-03-20T11:51:16.051Z,83.85
2018-03-20T11:52:16.039Z,83
2018-03-20T11:53:16.065Z,83.31
2018-03-20T11:54:16.042Z,82.93
2018-03-20T11:55:16.043Z,83.1
2018-03-20T11:56:16.046Z,82.99
2018-03-20T11:57:16.048Z,84.04
2018-03-20T11:58:16.092Z,81.46
2018-03-20T11:59:16.053Z,82.65
2018-03-20T12:00:16.058Z,83.73
2018-03-20T12:01:16.067Z,82.66
2018-03-20T12:02:16.123Z,83.36
2018-03-20T12:03:16.094Z,82.32
2018-03-20T12:04:16.090Z,81.58
2018-03-20T12:05:16.089Z,80.5
2018-03-20T12:06:16.080Z,79.68
2018-03-20T12:07:16.079Z,80.52
2018-03-20T12:08:16.097Z,78.84
2018-03-20T12:09:16.080Z,79.21
2018-03-20T12:10:16.091Z,78.15
2018-03-20T12:11:16.086Z,78.52
2018-03-20T12:12:16.096Z,78.31
2018-03-20T12:13:16.120Z,79.46
2018-03-20T12:14:16.094Z,78.94
2018-03-20T12:15:16.100Z,77.79
2018-03-20T12:16:16.101Z,77.07
2018-03-20T12:17:16.107Z,78.7
2018-03-20T12:18:16.133Z,77.6
2018-03-20T12:19:16.119Z,76.11
2018-03-20T12:20:16.120Z,76.81
2018-03-20T12:21:16.121Z,77.98
2018-03-20T12:22:16.123Z,78.14
2018-03-20T12:23:16.145Z,78.95
2018-03-20T12:24:16.149Z,77.83
2018-03-20T12:25:16.228Z,79.13
2018-03-20T12:26:16.142Z,76.85
2018-03-20T12:27:16.136Z,77.54
2018-03-20T12:28:16.139Z,78.63
2018-03-20T12:29:16.172Z,77.64
2018-03-20T12:30:16.145Z,76.58
2018-03-20T12:31:16.150Z,76.17
2018-03-20T12:32:16.155Z,75.93
2018-03-20T12:33:16.150Z,76.08
2018-03-20T12:34:16.184Z,76.21
2018-03-20T12:35:16.159Z,74.99
2018-03-20T12:36:16.170Z,75.51
2018-03-20T12:37:16.178Z,76.18
2018-03-20T12:38:16.180Z,76.23
2018-03-20T12:39:16.207Z,75.41
2018-03-20T12:40:16.177Z,74.57
2018-03-20T12:41:16.175Z,74.53
2018-03-20T12:42:16.183Z,72.83
2018-03-20T12:43:16.185Z,74.52
2018-03-20T12:44:16.191Z,73.76
2018-03-20T12:45:16.195Z,74.76
2018-03-20T12:46:16.197Z,74.35
2018-03-20T12:47:16.196Z,74.04
2018-03-20T12:48:16.202Z,73.71
2018-03-20T12:49:16.201Z,74.1
2018-03-20T12:50:16.210Z,72.83
2018-03-20T12:51:16.205Z,72.29
2018-03-20T12:52:16.209Z,72.11
2018-03-20T12:53:16.219Z,73.39
2018-03-20T12:54:16.212Z,73.15
2018-03-20T12:55:16.255Z,72.8